createdAt,value
2024-02-23T00:01:12.064Z,66.45
2024-02-23T00:03:38.870Z,67.74
2024-02-23T00:06:05.602Z,68.26
2024-02-23T00:08:32.746Z,68.40
2024-02-23T00:10:59.819Z,68.77
2024-02-23T00:13:26.593Z,68.44
2024-02-23T00:15:53.338Z,68.25
2024-02-23T00:18:21.250Z,67.74
2024-02-23T00:20:48.693Z,67.39
2024-02-23T00:23:15.544Z,67.38
2024-02-23T00:25:42.853Z,67.22
2024-02-23T00:28:09.536Z,67.07
2024-02-23T00:30:36.906Z,65.95
2024-02-23T00:33:04.178Z,65.96
2024-02-23T00:35:31.021Z,65.57
2024-02-23T00:37:57.677Z,64.68
2024-02-23T00:40:24.872Z,64.88
2024-02-23T00:42:51.497Z,64.84
2024-02-23T00:45:18.453Z,63.60
2024-02-23T00:47:46.136Z,63.31
2024-02-23T00:50:15.948Z,63.64
2024-02-23T00:52:42.601Z,62.93
2024-02-23T00:55:09.763Z,62.97
2024-02-23T00:57:37.972Z,62.69
2024-02-23T01:00:10.612Z,63.02
2024-02-23T01:02:38.240Z,63.20
2024-02-23T01:05:06.115Z,63.46
2024-02-23T01:07:33.830Z,63.37
2024-02-23T01:10:00.768Z,63.80
2024-02-23T01:12:27.429Z,64.00
2024-02-23T01:14:54.599Z,64.03
2024-02-23T01:17:21.337Z,64.12
2024-02-23T01:19:47.937Z,63.97
2024-02-23T01:22:16.290Z,64.03
2024-02-23T01:24:42.878Z,64.47
2024-02-23T01:27:09.562Z,64.61
2024-02-23T01:29:36.160Z,64.64
2024-02-23T01:32:03.241Z,65.07
2024-02-23T01:34:30.480Z,65.10
2024-02-23T01:36:57.163Z,65.12
2024-02-23T01:39:23.628Z,65.21
2024-02-23T01:41:50.203Z,65.08
2024-02-23T01:44:18.387Z,65.48
2024-02-23T01:46:46.024Z,65.48
2024-02-23T01:49:13.070Z,65.77
2024-02-23T01:51:40.033Z,65.75
2024-02-23T01:54:07.621Z,66.19
2024-02-23T01:56:37.782Z,66.29
2024-02-23T01:59:05.132Z,66.49
2024-02-23T02:01:33.038Z,66.58
2024-02-23T02:03:59.833Z,66.56
2024-02-23T02:06:26.653Z,66.77
2024-02-23T02:08:54.619Z,66.95
2024-02-23T02:11:21.550Z,65.93
2024-02-23T02:13:48.183Z,65.96
2024-02-23T02:16:15.079Z,65.24
2024-02-23T02:18:42.457Z,64.93
2024-02-23T02:21:09.346Z,65.46
2024-02-23T02:23:38.477Z,65.23
2024-02-23T02:26:05.655Z,65.26
2024-02-23T02:28:32.821Z,64.63
2024-02-23T02:30:59.353Z,64.35
2024-02-23T02:33:25.855Z,64.55
2024-02-23T02:35:52.592Z,64.25
2024-02-23T02:38:19.465Z,63.38
2024-02-23T02:40:46.613Z,63.84
2024-02-23T02:43:13.601Z,63.48
2024-02-23T02:45:40.278Z,63.25
2024-02-23T02:48:07.596Z,63.32
2024-02-23T02:50:34.772Z,63.10
2024-02-23T02:53:01.670Z,63.21
2024-02-23T02:55:28.273Z,63.21
2024-02-23T02:57:55.004Z,63.05
2024-02-23T03:00:21.519Z,63.01
2024-02-23T03:02:48.073Z,63.26
2024-02-23T03:05:14.871Z,63.77
2024-02-23T03:07:41.763Z,63.76
2024-02-23T03:10:08.463Z,64.38
2024-02-23T03:12:35.076Z,64.84
2024-02-23T03:15:03.980Z,65.06
2024-02-23T03:17:30.969Z,65.16
2024-02-23T03:19:58.904Z,65.27
2024-02-23T03:22:25.744Z,65.46
2024-02-23T03:24:52.245Z,65.27
2024-02-23T03:27:19.030Z,65.50
2024-02-23T03:29:45.646Z,65.58
2024-02-23T03:32:12.402Z,65.52
2024-02-23T03:34:39.183Z,65.01
2024-02-23T03:37:05.911Z,65.06
2024-02-23T03:39:33.913Z,65.23
2024-02-23T03:42:00.753Z,65.32
2024-02-23T03:44:27.392Z,65.30
2024-02-23T03:46:54.072Z,65.34
2024-02-23T03:49:20.780Z,65.72
2024-02-23T03:51:47.676Z,66.07
2024-02-23T03:54:14.252Z,65.96
2024-02-23T03:56:42.707Z,66.12
2024-02-23T03:59:10.739Z,66.63
2024-02-23T04:01:38.845Z,66.58
2024-02-23T04:04:05.975Z,66.44
2024-02-23T04:06:35.154Z,66.78
2024-02-23T04:09:02.200Z,66.73
2024-02-23T04:11:28.790Z,66.75
2024-02-23T04:13:55.433Z,66.92
2024-02-23T04:16:26.132Z,66.96
2024-02-23T04:18:53.774Z,67.38
2024-02-23T04:21:21.333Z,67.46
2024-02-23T04:23:48.125Z,67.19
2024-02-23T04:26:15.157Z,67.47
2024-02-23T04:28:43.279Z,67.50
2024-02-23T04:31:11.076Z,67.25
2024-02-23T04:33:38.818Z,67.28
2024-02-23T04:36:08.077Z,67.80
2024-02-23T04:38:35.679Z,67.60
2024-02-23T04:41:06.556Z,67.70
2024-02-23T04:43:33.711Z,67.81
2024-02-23T04:46:00.236Z,67.74
2024-02-23T04:48:27.263Z,67.73
2024-02-23T04:50:54.064Z,67.75
2024-02-23T04:53:21.093Z,68.08
2024-02-23T04:55:47.799Z,68.06
2024-02-23T04:58:15.178Z,67.97
2024-02-23T05:00:41.747Z,67.93
2024-02-23T05:03:12.477Z,68.21
2024-02-23T05:05:40.731Z,68.28
2024-02-23T05:08:07.671Z,68.66
2024-02-23T05:10:34.614Z,68.89
2024-02-23T05:13:01.489Z,69.00
2024-02-23T05:15:27.978Z,69.12
2024-02-23T05:17:54.490Z,69.05
2024-02-23T05:20:21.106Z,69.35
2024-02-23T05:22:48.415Z,69.33
2024-02-23T05:25:15.233Z,69.39
2024-02-23T05:27:41.764Z,69.66
2024-02-23T05:30:09.509Z,69.60
2024-02-23T05:32:36.209Z,69.69
2024-02-23T05:35:03.178Z,69.89
2024-02-23T05:37:29.787Z,70.02
2024-02-23T05:39:56.502Z,70.08
2024-02-23T05:42:23.199Z,70.02
2024-02-23T05:44:49.925Z,70.08
2024-02-23T05:47:17.096Z,70.33
2024-02-23T05:49:43.616Z,70.43
2024-02-23T05:52:10.747Z,70.36
2024-02-23T05:54:37.410Z,70.34
2024-02-23T05:57:04.689Z,70.49
2024-02-23T05:59:31.225Z,70.66
2024-02-23T06:01:58.558Z,70.82
2024-02-23T06:04:26.121Z,70.85
2024-02-23T06:06:53.622Z,70.85
2024-02-23T06:09:20.456Z,71.00
2024-02-23T06:11:47.916Z,71.15
2024-02-23T06:14:15.099Z,71.58
2024-02-23T06:16:42.106Z,71.60
2024-02-23T06:19:09.498Z,71.74
2024-02-23T06:21:36.212Z,71.78
2024-02-23T06:24:03.689Z,71.68
2024-02-23T06:26:30.508Z,71.84
2024-02-23T06:28:57.169Z,72.02
2024-02-23T06:31:24.002Z,71.93
2024-02-23T06:33:53.074Z,71.99
2024-02-23T06:36:19.994Z,72.00
2024-02-23T06:38:46.554Z,72.03
2024-02-23T06:41:13.640Z,72.53
2024-02-23T06:43:40.446Z,72.35
2024-02-23T06:46:11.154Z,72.38
2024-02-23T06:48:38.540Z,71.94
2024-02-23T06:51:10.326Z,71.96
2024-02-23T06:53:37.308Z,71.93
2024-02-23T06:56:04.509Z,71.38
2024-02-23T06:58:31.161Z,70.99
2024-02-23T07:00:57.790Z,71.25
2024-02-23T07:03:24.489Z,70.66
2024-02-23T07:05:51.690Z,70.47
2024-02-23T07:08:19.211Z,70.07
2024-02-23T07:10:46.786Z,70.17
2024-02-23T07:13:13.861Z,69.58
2024-02-23T07:15:40.445Z,69.23
2024-02-23T07:18:09.640Z,69.02
2024-02-23T07:20:38.185Z,68.72
2024-02-23T07:23:06.224Z,68.90
2024-02-23T07:25:32.827Z,68.62
2024-02-23T07:27:59.586Z,68.20
2024-02-23T07:30:26.459Z,67.95
2024-02-23T07:32:53.818Z,68.14
2024-02-23T07:35:21.155Z,67.98
2024-02-23T07:37:48.314Z,67.36
2024-02-23T07:40:17.251Z,67.30
2024-02-23T07:42:45.698Z,66.82
2024-02-23T07:45:12.350Z,66.56
2024-02-23T07:47:39.336Z,66.54
2024-02-23T07:50:06.517Z,66.53
2024-02-23T07:52:33.510Z,65.84
2024-02-23T07:55:03.699Z,65.90
2024-02-23T07:57:30.734Z,65.93
2024-02-23T07:59:57.347Z,65.71
2024-02-23T08:02:23.877Z,64.91
2024-02-23T08:04:51.562Z,64.78
2024-02-23T08:07:20.376Z,64.82
2024-02-23T08:09:46.876Z,64.60
2024-02-23T08:12:15.401Z,63.82
2024-02-23T08:14:43.578Z,63.93
2024-02-23T08:17:12.129Z,62.72
2024-02-23T08:19:39.268Z,62.22
2024-02-23T08:22:05.913Z,61.08
2024-02-23T08:24:32.661Z,61.13
2024-02-23T08:26:59.544Z,61.30
2024-02-23T08:29:27.536Z,60.58
2024-02-23T08:31:54.349Z,60.62
2024-02-23T08:34:21.202Z,60.09
2024-02-23T08:36:47.990Z,60.03
2024-02-23T08:39:14.838Z,60.21
2024-02-23T08:41:41.466Z,60.26
2024-02-23T08:44:08.289Z,60.13
2024-02-23T08:46:36.003Z,60.19
2024-02-23T08:49:03.000Z,60.11
2024-02-23T08:51:30.008Z,60.05
2024-02-23T08:54:01.090Z,59.78
2024-02-23T08:56:28.285Z,60.23
2024-02-23T08:58:55.487Z,60.10
2024-02-23T09:01:23.031Z,60.38
2024-02-23T09:03:49.821Z,59.91
2024-02-23T09:06:16.484Z,60.13
2024-02-23T09:08:43.373Z,60.79
2024-02-23T09:11:12.632Z,60.46
2024-02-23T09:13:39.453Z,60.73
2024-02-23T09:16:07.263Z,61.21
2024-02-23T09:18:33.790Z,61.18
2024-02-23T09:21:00.694Z,61.84
2024-02-23T09:23:28.013Z,61.80
2024-02-23T09:25:54.674Z,61.97
2024-02-23T09:28:21.556Z,61.44
2024-02-23T09:30:48.481Z,61.67
2024-02-23T09:33:15.274Z,61.77
2024-02-23T09:35:42.123Z,61.52
2024-02-23T09:38:09.028Z,61.74
2024-02-23T09:40:35.837Z,61.54
2024-02-23T09:43:02.991Z,61.69
2024-02-23T09:45:30.337Z,61.98
2024-02-23T09:47:58.979Z,62.06
2024-02-23T09:50:26.467Z,61.61
2024-02-23T09:52:53.650Z,61.53
2024-02-23T09:55:22.656Z,60.78
2024-02-23T09:57:53.262Z,59.99
2024-02-23T10:00:19.941Z,58.72
2024-02-23T10:02:46.575Z,58.27
2024-02-23T10:05:15.144Z,57.38
2024-02-23T10:07:42.473Z,56.46
2024-02-23T10:10:10.103Z,55.30
2024-02-23T10:12:36.978Z,54.79
2024-02-23T10:15:05.494Z,55.03
2024-02-23T10:17:36.228Z,55.41
2024-02-23T10:20:07.031Z,55.06
2024-02-23T10:22:33.688Z,54.85
2024-02-23T10:25:01.213Z,53.56
2024-02-23T10:27:29.055Z,53.52
2024-02-23T10:29:56.455Z,53.82
2024-02-23T10:32:25.543Z,53.48
2024-02-23T10:34:56.161Z,52.96
2024-02-23T10:37:24.505Z,52.87
2024-02-23T10:39:55.754Z,52.90
2024-02-23T10:42:25.772Z,52.94
2024-02-23T10:44:56.337Z,52.74
2024-02-23T10:47:24.328Z,52.28
2024-02-23T10:49:51.550Z,52.55
2024-02-23T10:52:19.227Z,53.12
2024-02-23T10:54:50.104Z,53.26
2024-02-23T10:57:19.803Z,52.53
2024-02-23T10:59:50.330Z,52.24
2024-02-23T11:02:21.767Z,52.77
2024-02-23T11:04:52.067Z,52.93
2024-02-23T11:07:22.758Z,53.41
2024-02-23T11:09:59.771Z,51.97
2024-02-23T11:12:29.787Z,51.38
2024-02-23T11:15:01.152Z,51.58
2024-02-23T11:17:29.608Z,51.95
2024-02-23T11:19:57.557Z,52.07
2024-02-23T11:22:37.677Z,52.10
2024-02-23T11:25:09.736Z,52.49
2024-02-23T11:27:37.235Z,53.11
2024-02-23T11:30:15.029Z,53.81
2024-02-23T11:32:44.999Z,54.91
2024-02-23T11:35:13.608Z,54.60
2024-02-23T11:37:50.434Z,55.03
2024-02-23T11:40:19.109Z,56.57
2024-02-23T11:42:45.848Z,58.21
2024-02-23T11:45:12.825Z,58.93
2024-02-23T11:47:40.569Z,59.91
2024-02-23T11:50:10.017Z,60.57
2024-02-23T11:52:38.807Z,61.22
2024-02-23T11:55:06.713Z,61.51
2024-02-23T11:57:39.480Z,62.06
2024-02-23T12:00:10.516Z,62.78
2024-02-23T12:02:37.117Z,62.25
2024-02-23T12:05:04.139Z,60.10
2024-02-23T12:07:31.667Z,57.00
2024-02-23T12:09:58.479Z,55.59
2024-02-23T12:12:27.330Z,55.39
2024-02-23T12:14:54.615Z,56.39
2024-02-23T12:17:21.138Z,56.97
2024-02-23T12:19:47.851Z,57.18
2024-02-23T12:22:14.420Z,57.94
2024-02-23T12:24:43.383Z,59.08
2024-02-23T12:27:10.199Z,59.71
2024-02-23T12:29:37.201Z,60.14
2024-02-23T12:32:07.557Z,60.64
2024-02-23T12:34:35.721Z,60.30
2024-02-23T12:37:06.448Z,60.23
2024-02-23T12:39:33.235Z,60.36
2024-02-23T12:41:59.742Z,60.19
2024-02-23T12:44:26.282Z,59.80
2024-02-23T12:46:53.210Z,59.23
2024-02-23T12:49:19.846Z,59.51
2024-02-23T12:51:46.751Z,60.64
2024-02-23T12:54:13.313Z,61.63
2024-02-23T12:56:39.907Z,60.80
2024-02-23T12:59:06.558Z,58.72
2024-02-23T13:01:37.558Z,57.09
2024-02-23T13:04:10.933Z,56.87
2024-02-23T13:06:41.389Z,56.67
2024-02-23T13:09:09.699Z,57.35
2024-02-23T13:11:39.589Z,57.71
2024-02-23T13:14:06.288Z,58.56
2024-02-23T13:16:33.277Z,59.51
2024-02-23T13:19:00.025Z,61.56
2024-02-23T13:21:26.610Z,64.52
2024-02-23T13:23:53.464Z,65.13
2024-02-23T13:26:20.081Z,65.77
2024-02-23T13:28:47.083Z,67.32
2024-02-23T13:31:14.854Z,67.51
2024-02-23T13:33:42.337Z,67.89
2024-02-23T13:36:09.221Z,67.86
2024-02-23T13:38:39.679Z,67.98
2024-02-23T13:41:07.200Z,67.89
2024-02-23T13:43:35.014Z,67.26
2024-02-23T13:46:01.846Z,67.29
2024-02-23T13:48:28.637Z,67.99
2024-02-23T13:50:55.961Z,66.65
2024-02-23T13:53:23.022Z,57.69
2024-02-23T13:55:51.059Z,50.80
2024-02-23T13:58:18.594Z,48.01
2024-02-23T14:00:45.483Z,48.09
2024-02-23T14:03:22.590Z,49.37
2024-02-23T14:05:49.892Z,49.11
2024-02-23T14:08:16.666Z,49.97
2024-02-23T14:10:44.634Z,51.40
2024-02-23T14:13:11.853Z,52.72
2024-02-23T14:15:39.527Z,54.36
2024-02-23T14:18:06.229Z,54.69
2024-02-23T14:20:33.133Z,54.42
2024-02-23T14:23:00.267Z,54.92
2024-02-23T14:25:26.820Z,53.13
2024-02-23T14:27:53.545Z,54.29
2024-02-23T14:30:20.478Z,53.25
2024-02-23T14:32:47.183Z,54.15
2024-02-23T14:35:14.529Z,54.89
2024-02-23T14:37:41.360Z,53.65
2024-02-23T14:40:08.922Z,53.60
2024-02-23T14:42:35.721Z,53.47
2024-02-23T14:45:02.951Z,53.46
2024-02-23T14:47:35.396Z,53.96
2024-02-23T14:50:07.266Z,53.75
2024-02-23T14:52:34.392Z,53.45
2024-02-23T14:55:01.268Z,52.54
2024-02-23T14:57:27.741Z,52.25
2024-02-23T14:59:54.235Z,52.11
2024-02-23T15:02:22.659Z,53.54
2024-02-23T15:04:49.890Z,54.49
2024-02-23T15:07:16.968Z,54.41
2024-02-23T15:09:43.873Z,52.18
2024-02-23T15:12:11.350Z,49.73
2024-02-23T15:14:38.905Z,48.54
2024-02-23T15:17:05.663Z,43.90
2024-02-23T15:19:32.465Z,39.22
2024-02-23T15:21:59.218Z,37.65
2024-02-23T15:24:25.949Z,35.83
2024-02-23T15:26:52.697Z,31.95
2024-02-23T15:29:19.779Z,31.41
2024-02-23T15:31:46.715Z,30.12
2024-02-23T15:34:13.847Z,29.39
2024-02-23T15:36:40.961Z,29.28
2024-02-23T15:39:08.132Z,29.79
2024-02-23T15:41:38.138Z,31.27
2024-02-23T15:44:04.944Z,32.43
2024-02-23T15:46:32.446Z,33.06
2024-02-23T15:48:59.137Z,33.23
2024-02-23T15:51:37.349Z,34.19
2024-02-23T15:54:13.835Z,34.59
2024-02-23T15:56:41.122Z,35.49
2024-02-23T15:59:09.872Z,36.36
2024-02-23T16:01:38.238Z,37.07
2024-02-23T16:04:06.633Z,37.83
2024-02-23T16:06:36.572Z,38.97
2024-02-23T16:09:03.994Z,40.20
2024-02-23T16:11:33.477Z,41.32
2024-02-23T16:14:00.690Z,42.53
2024-02-23T16:16:27.364Z,43.45
2024-02-23T16:18:54.014Z,44.57
2024-02-23T16:21:20.946Z,46.22
2024-02-23T16:23:48.134Z,47.38
2024-02-23T16:26:14.928Z,48.56
2024-02-23T16:28:41.767Z,49.25
2024-02-23T16:31:08.560Z,50.22
2024-02-23T16:33:35.081Z,51.01
2024-02-23T16:36:04.963Z,51.79
2024-02-23T16:38:31.855Z,52.83
2024-02-23T16:40:58.764Z,53.78
2024-02-23T16:43:25.336Z,54.51
2024-02-23T16:45:51.865Z,55.14
2024-02-23T16:48:18.903Z,55.72
2024-02-23T16:50:47.753Z,56.13
2024-02-23T16:53:15.110Z,56.67
2024-02-23T16:55:42.262Z,57.12
2024-02-23T16:58:10.059Z,57.77
2024-02-23T17:00:36.712Z,57.80
2024-02-23T17:03:04.563Z,58.16
2024-02-23T17:05:31.362Z,58.54
2024-02-23T17:07:58.133Z,59.27
2024-02-23T17:10:25.297Z,59.25
2024-02-23T17:12:54.057Z,59.55
2024-02-23T17:15:20.926Z,59.89
2024-02-23T17:17:48.278Z,60.22
2024-02-23T17:20:15.175Z,60.29
2024-02-23T17:22:43.497Z,60.44
2024-02-23T17:25:10.388Z,60.59
2024-02-23T17:27:39.016Z,60.75
2024-02-23T17:30:06.984Z,61.04
2024-02-23T17:32:33.914Z,61.13
2024-02-23T17:35:00.712Z,61.34
2024-02-23T17:37:27.309Z,61.61
2024-02-23T17:39:59.895Z,61.66
2024-02-23T17:42:26.391Z,61.76
2024-02-23T17:44:52.967Z,61.88
2024-02-23T17:47:20.238Z,61.79
2024-02-23T17:49:49.008Z,61.67
2024-02-23T17:52:16.513Z,61.86
2024-02-23T17:54:43.177Z,61.90
2024-02-23T17:57:09.787Z,61.96
2024-02-23T17:59:38.182Z,62.17
2024-02-23T18:02:05.497Z,62.22
2024-02-23T18:04:32.641Z,62.33
2024-02-23T18:07:00.434Z,62.43
2024-02-23T18:09:27.233Z,62.37
2024-02-23T18:11:54.039Z,62.47
2024-02-23T18:14:21.056Z,62.60
2024-02-23T18:16:49.172Z,62.54
2024-02-23T18:19:16.562Z,62.46
2024-02-23T18:21:43.776Z,62.71
2024-02-23T18:24:10.259Z,62.41
2024-02-23T18:26:39.599Z,62.69
2024-02-23T18:29:08.197Z,62.62
2024-02-23T18:31:34.789Z,63.37
2024-02-23T18:34:01.702Z,63.43
2024-02-23T18:36:28.414Z,64.22
2024-02-23T18:38:55.122Z,64.64
2024-02-23T18:41:21.643Z,64.70
2024-02-23T18:43:48.841Z,65.43
2024-02-23T18:46:15.877Z,65.07
2024-02-23T18:48:42.745Z,65.40
2024-02-23T18:51:09.648Z,65.60
2024-02-23T18:53:37.151Z,65.56
2024-02-23T18:56:07.004Z,65.49
2024-02-23T18:58:34.206Z,65.44
2024-02-23T19:01:01.205Z,65.58
2024-02-23T19:03:28.503Z,65.55
2024-02-23T19:05:55.527Z,65.80
2024-02-23T19:08:22.260Z,65.71
2024-02-23T19:10:48.989Z,65.11
2024-02-23T19:13:15.577Z,64.99
2024-02-23T19:15:44.776Z,64.72
2024-02-23T19:18:11.548Z,64.62
2024-02-23T19:20:38.380Z,64.99
2024-02-23T19:23:05.860Z,65.52
2024-02-23T19:25:32.690Z,65.60
2024-02-23T19:28:00.882Z,65.29
2024-02-23T19:30:28.219Z,64.87
2024-02-23T19:32:55.484Z,65.14
2024-02-23T19:35:22.305Z,65.03
2024-02-23T19:37:49.119Z,64.87
2024-02-23T19:40:21.934Z,64.97
2024-02-23T19:42:52.195Z,64.85
2024-02-23T19:45:18.758Z,65.35
2024-02-23T19:47:45.605Z,65.68
2024-02-23T19:50:12.387Z,65.68
2024-02-23T19:52:39.139Z,65.62
2024-02-23T19:55:07.324Z,65.47
2024-02-23T19:57:34.326Z,65.52
2024-02-23T20:00:01.665Z,65.35
2024-02-23T20:02:28.275Z,64.99
2024-02-23T20:04:56.283Z,65.22
2024-02-23T20:07:24.120Z,64.93
2024-02-23T20:09:51.089Z,64.88
2024-02-23T20:12:19.424Z,64.80
2024-02-23T20:14:47.793Z,64.32
2024-02-23T20:17:16.271Z,64.13
2024-02-23T20:19:43.147Z,64.22
2024-02-23T20:22:10.074Z,64.11
2024-02-23T20:24:39.140Z,64.03
2024-02-23T20:27:07.810Z,63.99
2024-02-23T20:29:37.124Z,63.98
2024-02-23T20:32:13.334Z,64.26
2024-02-23T20:34:46.946Z,64.48
2024-02-23T20:37:14.168Z,64.73
2024-02-23T20:39:40.895Z,64.95
2024-02-23T20:42:08.467Z,64.83
2024-02-23T20:44:35.520Z,64.95
2024-02-23T20:47:03.017Z,65.01
2024-02-23T20:49:32.333Z,65.21
2024-02-23T20:51:59.426Z,65.24
2024-02-23T20:54:26.585Z,65.20
2024-02-23T20:56:53.138Z,65.46
2024-02-23T20:59:19.726Z,65.46
2024-02-23T21:01:46.311Z,65.62
2024-02-23T21:04:12.921Z,65.31
2024-02-23T21:06:40.186Z,65.48
2024-02-23T21:09:06.906Z,65.62
2024-02-23T21:11:33.659Z,65.66
2024-02-23T21:14:00.482Z,65.80
2024-02-23T21:16:27.076Z,65.66
2024-02-23T21:18:53.706Z,65.65
2024-02-23T21:21:21.459Z,65.60
2024-02-23T21:23:49.491Z,65.80
2024-02-23T21:26:16.683Z,66.10
2024-02-23T21:28:43.815Z,66.42
2024-02-23T21:31:10.462Z,66.24
2024-02-23T21:33:37.159Z,66.44
2024-02-23T21:36:04.376Z,66.50
2024-02-23T21:41:25.104Z,66.29
2024-02-23T21:43:51.831Z,66.56
2024-02-23T21:46:18.342Z,66.96
2024-02-23T21:48:46.085Z,67.05
2024-02-23T21:51:13.270Z,67.38
2024-02-23T21:53:40.082Z,67.51
2024-02-23T21:56:07.221Z,67.60
2024-02-23T21:58:34.614Z,67.45
2024-02-23T22:01:01.939Z,67.54
2024-02-23T22:03:30.087Z,67.55
2024-02-23T22:05:56.730Z,67.65
2024-02-23T22:08:23.377Z,68.09
2024-02-23T22:10:50.300Z,68.02
2024-02-23T22:13:17.087Z,68.05
2024-02-23T22:15:43.818Z,68.19
2024-02-23T22:18:10.836Z,68.39
2024-02-23T22:20:37.488Z,67.78
2024-02-23T22:23:04.419Z,67.67
2024-02-23T22:25:31.213Z,67.85
2024-02-23T22:27:57.859Z,68.09
2024-02-23T22:30:24.542Z,67.82
2024-02-23T22:32:51.301Z,67.72
2024-02-23T22:35:20.062Z,67.89
2024-02-23T22:37:46.544Z,68.05
2024-02-23T22:40:14.572Z,68.35
2024-02-23T22:42:41.770Z,68.48
2024-02-23T22:45:10.091Z,68.47
2024-02-23T22:47:36.633Z,68.81
2024-02-23T22:50:03.586Z,68.71
2024-02-23T22:52:30.650Z,68.89
2024-02-23T22:54:57.487Z,69.02
2024-02-23T22:57:24.083Z,69.02
2024-02-23T22:59:50.899Z,69.03
2024-02-23T23:02:17.853Z,69.17
2024-02-23T23:04:45.094Z,69.23
2024-02-23T23:07:12.538Z,69.41
2024-02-23T23:09:39.406Z,69.30
2024-02-23T23:12:06.156Z,69.57
2024-02-23T23:14:33.060Z,69.25
2024-02-23T23:16:59.947Z,69.41
2024-02-23T23:19:26.562Z,69.42
2024-02-23T23:21:53.512Z,69.91
2024-02-23T23:24:21.283Z,69.63
2024-02-23T23:26:48.476Z,69.45
2024-02-23T23:29:15.614Z,69.65
2024-02-23T23:31:42.239Z,69.53
2024-02-23T23:34:08.820Z,69.61
2024-02-23T23:36:35.611Z,69.44
2024-02-23T23:39:02.316Z,69.44
2024-02-23T23:41:28.969Z,69.42
2024-02-23T23:43:56.043Z,69.31
2024-02-23T23:46:22.629Z,69.56
2024-02-23T23:48:49.166Z,69.36
2024-02-23T23:51:15.857Z,69.06
2024-02-23T23:53:42.622Z,69.12
2024-02-23T23:56:12.978Z,69.15
2024-02-23T23:58:39.935Z,69.35
